createdAt,value
2023-01-25T00:00:02.111Z,8.48
2023-01-25T00:02:29.132Z,10.18
2023-01-25T00:04:56.009Z,8.95
2023-01-25T00:07:22.685Z,8.60
2023-01-25T00:09:49.344Z,7.95
2023-01-25T00:12:16.120Z,9.23
2023-01-25T00:14:42.833Z,7.53
2023-01-25T00:17:09.609Z,9.30
2023-01-25T00:19:36.343Z,8.43
2023-01-25T00:22:03.238Z,7.88
2023-01-25T00:24:29.937Z,10.57
2023-01-25T00:26:56.711Z,8.27
2023-01-25T00:29:30.903Z,9.57
2023-01-25T00:31:57.629Z,9.38
2023-01-25T00:34:24.527Z,9.13
2023-01-25T00:36:52.194Z,10.23
2023-01-25T00:39:19.005Z,9.55
2023-01-25T00:41:45.718Z,7.82
2023-01-25T00:44:12.707Z,9.60
2023-01-25T00:46:39.646Z,8.68
2023-01-25T00:49:06.942Z,7.88
2023-01-25T00:51:33.952Z,9.05
2023-01-25T00:54:00.626Z,8.88
2023-01-25T00:56:27.356Z,8.73
2023-01-25T00:58:54.183Z,9.63
2023-01-25T05:01:45.600Z,13.80
2023-01-25T05:04:12.366Z,13.45
2023-01-25T05:06:39.122Z,12.90
2023-01-25T05:09:05.871Z,12.73
2023-01-25T05:11:32.579Z,14.18
2023-01-25T05:13:59.326Z,14.15
2023-01-25T05:16:26.118Z,13.45
2023-01-25T05:18:55.306Z,12.98
2023-01-25T05:21:44.982Z,13.70
2023-01-25T05:24:11.978Z,13.27
2023-01-25T05:26:57.580Z,14.52
2023-01-25T05:29:24.271Z,13.82
2023-01-25T05:31:51.011Z,14.63
2023-01-25T05:34:17.739Z,16.33
2023-01-25T05:36:44.480Z,14.48
2023-01-25T05:39:11.304Z,12.90
2023-01-25T05:41:38.111Z,12.50
2023-01-25T05:44:05.111Z,15.63
2023-01-25T05:46:31.931Z,12.32
2023-01-25T05:48:58.739Z,13.82
2023-01-25T05:51:25.531Z,15.35
2023-01-25T05:53:55.931Z,13.00
2023-01-25T05:56:23.030Z,13.77
2023-01-25T05:58:57.806Z,13.52
2023-01-25T06:01:25.390Z,12.35
2023-01-25T06:03:52.554Z,15.45
2023-01-25T06:06:19.500Z,14.73
2023-01-25T06:08:46.530Z,14.60
2023-01-25T06:11:16.229Z,13.93
2023-01-25T06:13:43.470Z,14.68
2023-01-25T06:16:10.663Z,14.25
2023-01-25T06:18:37.912Z,14.40
2023-01-25T06:21:05.135Z,15.55
2023-01-25T06:23:31.940Z,15.45
2023-01-25T06:26:05.116Z,13.82
2023-01-25T06:28:33.183Z,15.73
2023-01-25T06:31:11.871Z,14.20
2023-01-25T06:33:39.575Z,14.93
2023-01-25T06:36:14.731Z,15.20
2023-01-25T06:38:42.146Z,14.48
2023-01-25T06:41:12.230Z,15.93
2023-01-25T06:43:39.280Z,14.68
2023-01-25T06:46:08.332Z,15.38
2023-01-25T06:48:35.590Z,17.15
2023-01-25T06:51:07.684Z,18.02
2023-01-25T06:53:37.350Z,15.45
2023-01-25T06:56:12.868Z,16.70
2023-01-25T06:58:40.435Z,14.40
2023-01-25T07:01:13.019Z,15.55
2023-01-25T07:03:40.917Z,15.80
2023-01-25T07:06:09.985Z,15.70
2023-01-25T07:08:37.195Z,15.73
2023-01-25T07:11:06.384Z,15.75
2023-01-25T07:13:34.334Z,17.15
2023-01-25T07:16:04.272Z,16.73
2023-01-25T07:18:31.857Z,16.90
2023-01-25T07:21:09.889Z,17.38
2023-01-25T07:23:38.368Z,18.08
2023-01-25T07:26:06.381Z,16.42
2023-01-25T07:28:33.525Z,17.98
2023-01-25T07:31:09.786Z,19.27
2023-01-25T07:33:36.739Z,19.77
2023-01-25T07:36:07.801Z,19.30
2023-01-25T07:38:35.155Z,15.15
2023-01-25T07:41:02.752Z,18.63
2023-01-25T07:43:29.975Z,17.40
2023-01-25T07:46:05.312Z,17.65
2023-01-25T07:48:33.179Z,20.00
2023-01-25T07:51:23.190Z,20.33
2023-01-25T07:53:55.428Z,17.30
2023-01-25T07:56:31.368Z,18.58
2023-01-25T07:58:59.638Z,20.40
2023-01-25T08:01:28.555Z,16.95
2023-01-25T08:03:56.565Z,16.38
2023-01-25T08:06:31.084Z,16.80
2023-01-25T08:08:59.415Z,14.43
2023-01-25T08:11:29.271Z,17.58
2023-01-25T08:13:56.619Z,16.30
2023-01-25T08:16:26.127Z,13.52
2023-01-25T08:18:55.238Z,16.35
2023-01-25T08:21:29.132Z,18.02
2023-01-25T08:24:00.128Z,21.40
2023-01-25T08:26:27.729Z,18.08
2023-01-25T08:28:54.601Z,17.90
2023-01-25T08:31:24.726Z,18.75
2023-01-25T08:33:52.412Z,17.35
2023-01-25T08:36:20.211Z,17.92
2023-01-25T08:38:48.013Z,17.55
2023-01-25T08:41:17.282Z,16.05
2023-01-25T08:43:45.454Z,19.75
2023-01-25T08:46:13.245Z,19.20
2023-01-25T08:48:40.372Z,18.15
2023-01-25T08:51:13.553Z,16.48
2023-01-25T08:53:40.539Z,17.25
2023-01-25T08:56:11.732Z,18.45
2023-01-25T08:58:42.466Z,17.27
2023-01-25T09:01:11.597Z,17.65
2023-01-25T09:03:41.074Z,15.93
2023-01-25T09:06:09.187Z,16.23
2023-01-25T09:08:37.823Z,16.48
2023-01-25T09:11:09.552Z,13.55
2023-01-25T09:13:36.495Z,18.98
2023-01-25T09:16:10.142Z,19.77
2023-01-25T09:18:38.746Z,15.93
2023-01-25T09:21:10.965Z,15.23
2023-01-25T09:23:50.728Z,12.77
2023-01-25T09:26:25.221Z,16.10
2023-01-25T09:28:54.567Z,17.08
2023-01-25T09:31:29.365Z,15.77
2023-01-25T09:33:58.133Z,17.38
2023-01-25T09:36:25.588Z,17.42
2023-01-25T09:38:52.657Z,16.90
2023-01-25T09:41:54.734Z,16.85
2023-01-25T09:45:00.871Z,20.02
2023-01-25T09:47:50.502Z,16.77
2023-01-25T09:50:56.596Z,17.10
2023-01-25T09:53:36.999Z,15.48
2023-01-25T09:56:20.729Z,16.92
2023-01-25T09:58:52.484Z,14.88
2023-01-25T10:01:39.035Z,16.83
2023-01-25T10:04:15.485Z,15.90
2023-01-25T10:06:55.145Z,17.90
2023-01-25T10:09:54.953Z,16.60
2023-01-25T10:12:24.036Z,16.73
2023-01-25T10:14:51.863Z,14.85
2023-01-25T10:17:39.451Z,16.55
2023-01-25T10:20:24.177Z,15.05
2023-01-25T10:23:12.523Z,16.95
2023-01-25T10:25:46.636Z,17.23
2023-01-25T10:28:31.572Z,17.23
2023-01-25T10:31:11.345Z,16.50
2023-01-25T10:33:43.326Z,13.65
2023-01-25T10:36:18.491Z,15.73
2023-01-25T10:38:49.717Z,15.25
2023-01-25T10:41:27.062Z,15.23
2023-01-25T10:44:13.868Z,13.38
2023-01-25T10:46:44.237Z,13.38
2023-01-25T10:49:24.865Z,13.38
2023-01-25T10:51:51.735Z,14.35
2023-01-25T10:54:18.564Z,13.07
2023-01-25T10:56:46.471Z,12.57
2023-01-25T10:59:18.789Z,11.98
2023-01-25T11:01:45.752Z,14.60
2023-01-25T11:04:35.570Z,13.95
2023-01-25T11:07:05.869Z,11.98
2023-01-25T11:09:36.384Z,12.90
2023-01-25T11:12:12.067Z,13.13
2023-01-25T11:14:38.881Z,11.60
2023-01-25T11:17:06.493Z,12.60
2023-01-25T11:19:40.757Z,16.55
2023-01-25T11:22:19.562Z,9.27
2023-01-25T11:24:46.656Z,9.25
2023-01-25T11:27:18.103Z,9.15
2023-01-25T11:29:47.159Z,9.57
2023-01-25T11:32:25.213Z,9.85
2023-01-25T11:34:52.062Z,8.68
2023-01-25T11:37:26.928Z,10.95
2023-01-25T11:40:06.848Z,9.65
2023-01-25T11:42:58.350Z,8.77
2023-01-25T11:45:46.771Z,9.35
2023-01-25T11:48:34.026Z,7.75
2023-01-25T11:51:17.962Z,7.45
2023-01-25T11:53:49.713Z,7.10
2023-01-25T11:56:57.701Z,7.65
2023-01-25T11:59:24.368Z,7.47
2023-01-25T12:01:53.777Z,7.68
2023-01-25T12:04:39.080Z,5.90
2023-01-25T12:07:11.732Z,6.05
2023-01-25T12:09:59.025Z,7.10
2023-01-25T12:12:47.219Z,6.45
2023-01-25T12:15:35.794Z,4.68
2023-01-25T12:18:23.629Z,5.38
2023-01-25T12:21:30.659Z,6.75
2023-01-25T12:24:21.121Z,3.97
2023-01-25T12:27:09.404Z,5.78
2023-01-25T12:29:39.784Z,5.30
2023-01-25T12:32:22.548Z,5.30
2023-01-25T12:37:26.838Z,2.80
2023-01-25T12:40:01.609Z,3.85
2023-01-25T12:43:01.605Z,3.03
2023-01-25T12:45:34.475Z,2.17
2023-01-25T12:48:22.934Z,3.75
2023-01-25T12:50:52.174Z,2.72
2023-01-25T12:53:24.610Z,4.70
2023-01-25T12:55:52.927Z,4.50
2023-01-25T12:58:23.829Z,4.40
2023-01-25T13:01:16.070Z,4.63
2023-01-25T13:04:11.721Z,4.30
2023-01-25T13:07:03.733Z,6.03
2023-01-25T13:09:45.158Z,7.27
2023-01-25T13:12:12.774Z,7.32
2023-01-25T13:14:41.273Z,7.60
2023-01-25T13:17:21.296Z,6.32
2023-01-25T13:19:49.147Z,8.27
2023-01-25T13:22:44.708Z,9.90
2023-01-25T13:25:17.436Z,8.85
2023-01-25T13:27:44.219Z,7.97
2023-01-25T13:30:34.380Z,10.02
2023-01-25T13:33:03.606Z,10.00
2023-01-25T13:35:35.343Z,11.52
2023-01-25T13:38:20.847Z,7.27
2023-01-25T13:41:04.617Z,8.20
2023-01-25T13:43:31.405Z,7.70
2023-01-25T13:45:58.113Z,8.38
2023-01-25T13:48:28.590Z,8.98
2023-01-25T13:51:00.808Z,9.50
2023-01-25T13:53:33.152Z,8.30
2023-01-25T13:56:00.358Z,9.38
2023-01-25T13:58:33.434Z,8.65
2023-01-25T14:01:04.175Z,8.57
2023-01-25T14:03:36.026Z,8.02
2023-01-25T14:06:04.350Z,7.70
2023-01-25T14:08:32.527Z,10.00
2023-01-25T14:10:59.758Z,7.90
2023-01-25T14:13:26.689Z,8.07
2023-01-25T14:15:53.385Z,8.27
2023-01-25T14:18:21.193Z,9.60
2023-01-25T14:20:53.421Z,9.63
2023-01-25T14:23:24.007Z,9.82
2023-01-25T14:25:51.929Z,8.63
2023-01-25T14:28:18.823Z,8.82
2023-01-25T14:30:51.887Z,12.13
2023-01-25T14:33:21.206Z,12.13
2023-01-25T14:35:57.273Z,11.10
2023-01-25T14:38:29.966Z,13.02
2023-01-25T14:41:12.311Z,11.52
2023-01-25T14:43:43.116Z,11.88
2023-01-25T14:46:26.382Z,12.50
2023-01-25T14:49:09.521Z,14.32
2023-01-25T14:51:47.764Z,14.23
2023-01-25T14:54:24.965Z,12.98
2023-01-25T14:56:56.169Z,14.63
2023-01-25T14:59:38.283Z,12.60
2023-01-25T15:02:37.749Z,11.52
2023-01-25T15:05:16.182Z,13.52
2023-01-25T15:07:45.125Z,13.98
2023-01-25T15:10:22.356Z,11.35
2023-01-25T15:13:13.666Z,12.82
2023-01-25T15:16:00.806Z,7.77
2023-01-25T15:18:53.749Z,10.13
2023-01-25T15:23:56.265Z,8.95
2023-01-25T15:26:27.179Z,9.98
2023-01-25T15:28:57.847Z,9.40
2023-01-25T15:31:27.920Z,9.57
2023-01-25T15:33:58.975Z,10.75
2023-01-25T15:36:26.238Z,8.63
2023-01-25T15:38:53.418Z,8.77
2023-01-25T15:41:20.669Z,9.88
2023-01-25T15:43:48.651Z,8.60
2023-01-25T15:46:27.339Z,8.55
2023-01-25T15:48:55.379Z,9.60
2023-01-25T15:51:23.234Z,8.02
2023-01-25T15:53:50.023Z,8.82
2023-01-25T15:56:22.954Z,8.80
2023-01-25T15:58:55.673Z,8.60
2023-01-25T16:01:24.169Z,9.10
2023-01-25T16:03:50.947Z,10.45
2023-01-25T16:06:31.821Z,8.07
2023-01-25T16:09:00.161Z,9.25
2023-01-25T16:11:27.763Z,8.57
2023-01-25T16:13:54.557Z,8.88
2023-01-25T16:16:23.778Z,8.52
2023-01-25T16:18:50.957Z,9.05
2023-01-25T16:21:17.904Z,7.03
2023-01-25T16:23:44.867Z,9.50
2023-01-25T16:26:27.639Z,7.53
2023-01-25T16:31:31.885Z,8.40
2023-01-25T16:34:00.968Z,8.70
2023-01-25T16:36:28.504Z,8.55
2023-01-25T16:38:55.548Z,9.88
2023-01-25T16:41:22.515Z,11.07
2023-01-25T16:43:49.952Z,8.45
2023-01-25T16:46:22.577Z,10.80
2023-01-25T16:48:52.162Z,9.35
2023-01-25T16:51:21.656Z,10.32
2023-01-25T16:53:50.079Z,9.45
2023-01-25T16:56:22.164Z,8.32
2023-01-25T16:58:49.906Z,8.32
2023-01-25T17:01:19.038Z,9.32
2023-01-25T17:03:46.805Z,9.73
2023-01-25T17:06:24.318Z,11.07
2023-01-25T17:08:51.967Z,9.15
2023-01-25T17:11:19.047Z,11.43
2023-01-25T17:13:50.544Z,10.00
2023-01-25T17:16:18.586Z,10.43
2023-01-25T17:18:45.695Z,10.77
2023-01-25T17:21:14.562Z,10.57
2023-01-25T17:23:42.549Z,10.55
2023-01-25T17:26:13.448Z,11.43
2023-01-25T17:28:40.813Z,11.80
2023-01-25T17:31:19.726Z,11.95
2023-01-25T17:33:46.977Z,12.43
2023-01-25T17:36:15.207Z,12.13
2023-01-25T17:38:42.455Z,11.35
2023-01-25T17:41:11.661Z,13.20
2023-01-25T17:43:38.481Z,12.40
2023-01-25T17:46:25.495Z,12.23
2023-01-25T17:48:53.592Z,12.50
2023-01-25T17:51:22.270Z,11.45
2023-01-25T17:53:50.289Z,12.20
2023-01-25T17:56:18.981Z,12.07
2023-01-25T17:58:46.428Z,11.85
2023-01-25T18:01:17.368Z,10.90
2023-01-25T18:03:45.261Z,11.30
2023-01-25T18:06:14.729Z,10.52
2023-01-25T18:08:46.667Z,10.60
2023-01-25T18:11:16.443Z,12.35
2023-01-25T18:13:48.563Z,11.48
2023-01-25T18:16:17.454Z,12.20
2023-01-25T18:18:45.286Z,13.25
2023-01-25T18:21:15.054Z,12.07
2023-01-25T18:23:46.066Z,12.50
2023-01-25T18:26:18.359Z,12.57
2023-01-25T18:28:45.774Z,12.70
2023-01-25T18:31:13.117Z,13.63
2023-01-25T18:33:40.195Z,12.57
2023-01-25T18:36:08.751Z,14.20
2023-01-25T18:38:35.500Z,12.15
2023-01-25T18:41:04.542Z,12.52
2023-01-25T18:43:31.263Z,11.70
2023-01-25T18:45:59.403Z,11.10
2023-01-25T18:48:30.739Z,12.63
2023-01-25T18:51:19.767Z,13.50
2023-01-25T18:53:47.775Z,15.00
2023-01-25T18:56:19.419Z,13.70
2023-01-25T18:58:47.116Z,14.30
2023-01-25T19:01:16.397Z,17.52
2023-01-25T19:03:44.422Z,12.23
2023-01-25T19:06:11.883Z,15.32
2023-01-25T19:08:43.975Z,14.23
2023-01-25T19:11:15.352Z,11.48
2023-01-25T19:13:43.049Z,13.93
2023-01-25T19:16:14.454Z,13.02
2023-01-25T19:18:46.963Z,14.32
2023-01-25T19:23:42.091Z,14.05
2023-01-25T19:26:12.829Z,12.95
2023-01-25T19:28:40.124Z,11.25
2023-01-25T19:31:08.629Z,11.63
2023-01-25T19:33:36.206Z,10.77
2023-01-25T19:36:04.757Z,12.25
2023-01-25T19:38:32.587Z,14.07
2023-01-25T19:41:07.176Z,11.65
2023-01-25T19:43:34.216Z,12.70
2023-01-25T19:46:14.257Z,11.88
2023-01-25T19:48:42.128Z,11.35
2023-01-25T19:51:16.671Z,11.27
2023-01-25T19:53:46.446Z,9.48
2023-01-25T19:56:16.424Z,9.20
2023-01-25T19:58:47.750Z,9.52
2023-01-25T20:01:17.163Z,8.00
2023-01-25T20:03:44.422Z,9.05
2023-01-25T20:06:12.671Z,9.55
2023-01-25T20:08:41.398Z,8.52
2023-01-25T20:11:20.669Z,9.02
2023-01-25T20:13:48.538Z,8.45
2023-01-25T20:16:18.920Z,8.13
2023-01-25T20:18:47.108Z,7.88
2023-01-25T20:21:19.542Z,7.20
2023-01-25T20:23:49.084Z,8.45
2023-01-25T20:26:18.588Z,8.00
2023-01-25T20:28:47.966Z,10.38
2023-01-25T20:31:22.455Z,10.63
2023-01-25T20:33:50.403Z,9.85
2023-01-25T20:36:17.653Z,10.23
2023-01-25T20:38:44.461Z,10.85
2023-01-25T20:41:14.185Z,9.60
2023-01-25T20:43:47.187Z,8.60
2023-01-25T20:46:14.872Z,8.85
2023-01-25T20:48:41.748Z,7.65
2023-01-25T20:51:12.907Z,7.65
2023-01-25T20:53:41.377Z,10.77
2023-01-25T20:56:09.215Z,7.78
2023-01-25T20:58:36.409Z,8.32
2023-01-25T21:01:04.144Z,9.10
2023-01-25T21:03:30.936Z,8.65
2023-01-25T21:05:59.197Z,11.48
2023-01-25T21:08:26.200Z,7.95
2023-01-25T21:10:54.445Z,9.73
2023-01-25T21:13:22.209Z,9.70
2023-01-25T21:16:07.506Z,11.23
2023-01-25T21:18:45.483Z,11.00
2023-01-25T21:21:17.981Z,9.35
2023-01-25T21:26:20.989Z,8.70
2023-01-25T21:28:48.382Z,9.70
2023-01-25T21:31:16.529Z,11.25
2023-01-25T21:33:43.506Z,9.23
2023-01-25T21:36:14.604Z,9.38
2023-01-25T21:38:43.384Z,9.13
2023-01-25T21:41:14.108Z,9.35
2023-01-25T21:43:59.501Z,11.40
2023-01-25T21:46:27.758Z,11.80
2023-01-25T21:49:15.179Z,12.93
2023-01-25T21:51:50.639Z,10.20
2023-01-25T21:54:18.514Z,10.55
2023-01-25T21:56:46.980Z,11.15
2023-01-25T21:59:13.969Z,9.27
2023-01-25T22:01:40.876Z,9.55
2023-01-25T22:04:07.603Z,10.35
2023-01-25T22:06:34.752Z,8.13
2023-01-25T22:09:01.670Z,7.07
2023-01-25T22:11:28.418Z,8.10
2023-01-25T22:13:55.480Z,8.00
2023-01-25T22:16:22.519Z,9.65
2023-01-25T22:18:49.891Z,7.30
2023-01-25T22:21:24.619Z,8.73
2023-01-25T22:23:51.987Z,6.05
2023-01-25T22:26:21.380Z,7.15
2023-01-25T22:28:56.112Z,6.43
2023-01-25T22:31:31.366Z,6.18
2023-01-25T22:33:59.313Z,7.63
2023-01-25T22:36:28.388Z,6.03
2023-01-25T22:38:55.254Z,5.55
2023-01-25T22:41:24.959Z,6.32
2023-01-25T22:43:52.555Z,6.38
2023-01-25T22:46:22.223Z,6.13
2023-01-25T22:48:49.365Z,5.53
2023-01-25T22:51:19.124Z,5.63
2023-01-25T22:53:46.457Z,6.18
2023-01-25T22:56:18.594Z,5.10
2023-01-25T22:58:46.840Z,6.00
2023-01-25T23:01:34.375Z,4.28
2023-01-25T23:04:02.029Z,5.47
2023-01-25T23:06:31.238Z,5.20
2023-01-25T23:08:59.978Z,4.38
2023-01-25T23:11:38.046Z,3.15
2023-01-25T23:14:46.908Z,3.40
2023-01-25T23:17:32.379Z,3.42
2023-01-25T23:19:59.043Z,2.75
2023-01-25T23:22:26.283Z,3.08
2023-01-25T23:24:52.993Z,3.22
2023-01-25T23:27:19.739Z,1.90
2023-01-25T23:29:46.433Z,2.72
2023-01-25T23:32:13.157Z,2.22
2023-01-25T23:34:40.172Z,1.90
2023-01-25T23:37:07.475Z,1.65
2023-01-25T23:39:34.213Z,2.38
2023-01-25T23:42:01.086Z,2.03
2023-01-25T23:44:28.153Z,2.05
2023-01-25T23:46:55.151Z,1.70
2023-01-25T23:49:21.842Z,1.83
2023-01-25T23:51:48.626Z,1.90
2023-01-25T23:54:15.428Z,2.60
2023-01-25T23:56:42.143Z,2.28
2023-01-25T23:59:08.837Z,2.22
